Weather reports worldwide

Advertisment
East malling, United Kingdom (99008): temperature & dewpoint: 14.10.2018 15:00:00 - 20.10.2018 15:00:00 (BST)East malling, United Kingdom (99008): temperature -20cm: 14.10.2018 15:00:00 - 20.10.2018 15:00:00 (BST)East malling, United Kingdom (99008): wind speed: 14.10.2018 15:00:00 - 20.10.2018 15:00:00 (BST)East malling, United Kingdom (99008): wind direction: 14.10.2018 15:00:00 - 20.10.2018 15:00:00 (BST)East malling, United Kingdom (99008): reduced air pressure: 14.10.2018 15:00:00 - 20.10.2018 15:00:00 (BST)East malling, United Kingdom (99008): sunshine duration: 14.10.2018 15:00:00 - 20.10.2018 15:00:00 (BST)East malling, United Kingdom (99008): precipitation: 14.10.2018 15:00:00 - 20.10.2018 15:00:00 (BST)
Date & Time tt [°C] td [°C] tt -20cm [°C] ff [km/h] ff [kn] dd ppp [hPa] sd [min] rr [mm]
20.10.2018 15:00:00 - - - - - - - - -
20.10.2018 14:00:00 16,4 8,6 - 8 4 SW 1031,3 60 0,0
20.10.2018 13:00:00 15,4 9,2 - 5 3 SW 1032,1 48 0,0
20.10.2018 12:00:00 14,5 8,9 - 4 2 WSW 1032,6 60 0,0
20.10.2018 11:00:00 12,1 10,3 - 2 1 E 1032,5 54 0,0
20.10.2018 10:00:00 8,4 8,4 11,7 2 1 E 1032,5 48 0,0
20.10.2018 09:00:00 5,7 5,7 - 2 1 NE 1032,3 60 0,0
20.10.2018 08:00:00 2,6 2,6 - 2 1 SE 1032,0 18 0,0
20.10.2018 07:00:00 2,9 2,8 - 4 2 S 1031,2 0 0,0
20.10.2018 06:00:00 2,7 2,5 - 2 1 W 1031,0 0 0,0
20.10.2018 05:00:00 3,2 3,1 - 2 1 W 1030,3 0 0,0
20.10.2018 04:00:00 3,0 2,9 - 2 1 SE 1029,9 0 0,0
20.10.2018 03:00:00 4,0 3,9 - 2 1 SSW 1029,7 0 0,0
20.10.2018 02:00:00 3,5 3,4 - 2 1 S 1029,5 0 0,0
20.10.2018 01:00:00 4,0 3,9 - 2 1 S 1029,6 - 0,0
20.10.2018 00:00:00 4,2 4,0 - 2 1 S 1029,4 0 0,0
19.10.2018 23:00:00 4,4 4,0 - 2 1 SE 1029,1 0 0,0
19.10.2018 22:00:00 5,3 5,0 - 2 1 SSW 1028,8 0 0,0
19.10.2018 21:00:00 5,8 5,0 - 4 2 SSW 1028,5 0 0,0
19.10.2018 20:00:00 6,9 5,9 - 2 1 W 1028,2 0 0,0
19.10.2018 19:00:00 8,6 6,6 - 2 1 S 1027,6 0 0,0
19.10.2018 18:00:00 11,4 6,6 - 4 2 N 1026,6 42 0,0
19.10.2018 17:00:00 14,5 7,5 - 9 5 N 1026,2 60 0,0
19.10.2018 16:00:00 15,0 8,4 - 9 5 NNE 1025,8 60 0,0
19.10.2018 15:00:00 15,4 8,8 - 11 6 N 1026,0 54 0,0
19.10.2018 14:00:00 14,9 9,3 - 13 7 N 1026,3 60 0,0
19.10.2018 13:00:00 14,0 9,2 - 9 5 NNW 1026,2 48 0,0
19.10.2018 12:00:00 13,0 8,9 - 9 5 N 1026,5 30 0,0
19.10.2018 11:00:00 11,8 8,5 - 8 4 NNE 1026,7 36 0,0
19.10.2018 10:00:00 10,9 8,2 12,7 2 1 NE 1026,5 60 0,0
19.10.2018 09:00:00 8,1 7,3 - 4 2 WNW 1026,4 54 0,0
19.10.2018 08:00:00 5,7 5,3 - 4 2 SW 1025,3 6 0,0
19.10.2018 07:00:00 5,8 5,2 - 2 1 WSW 1025,6 0 0,0
19.10.2018 06:00:00 4,5 4,2 - 0 0 N 1025,9 0 0,0
19.10.2018 05:00:00 4,4 4,0 - 2 1 WNW 1026,0 0 0,0
19.10.2018 04:00:00 5,7 5,6 - 4 2 NW 1026,2 0 0,0
19.10.2018 03:00:00 5,2 4,6 - 2 1 W 1026,1 0 0,0
19.10.2018 02:00:00 6,0 5,1 - 2 1 WNW 1026,3 0 0,0
19.10.2018 01:00:00 7,2 6,2 - 8 4 WNW 1026,4 - 0,0
19.10.2018 00:00:00 5,1 4,3 - 4 2 WNW 1026,5 0 0,0
18.10.2018 23:00:00 6,5 5,7 - 4 2 WNW 1026,8 0 0,0
18.10.2018 22:00:00 6,9 5,5 - 5 3 WNW 1026,9 0 0,0
18.10.2018 21:00:00 10,6 6,5 - 8 4 NE 1026,9 0 0,0
18.10.2018 20:00:00 11,1 7,5 - 8 4 NE 1026,8 0 0,0
18.10.2018 19:00:00 11,8 8,1 - 11 6 NE 1026,5 6 0,0
18.10.2018 18:00:00 12,8 7,9 - 13 7 ENE 1026,2 24 0,0
18.10.2018 17:00:00 13,4 8,4 - 13 7 ENE 1026,1 6 0,0
18.10.2018 16:00:00 14,2 8,7 - 16 9 NE 1026,2 12 0,0
18.10.2018 15:00:00 15,0 9,8 - 16 9 NE 1026,5 42 0,0
18.10.2018 14:00:00 14,4 9,8 - 21 11 NE 1026,7 18 0,0
18.10.2018 13:00:00 14,5 10,2 - 16 9 ENE 1026,8 0 0,0
18.10.2018 12:00:00 14,1 10,2 - 18 10 NNE 1027,1 30 0,0
18.10.2018 11:00:00 14,3 10,9 - 13 7 NE 1027,0 42 0,0
18.10.2018 10:00:00 11,8 10,1 14,2 11 6 N 1027,0 6 0,0
18.10.2018 09:00:00 10,7 9,9 - 9 5 N 1026,6 0 0,0
18.10.2018 08:00:00 10,4 9,6 - 9 5 N 1026,0 0 0,0
18.10.2018 07:00:00 10,6 9,9 - 11 6 N 1025,6 0 0,0
18.10.2018 06:00:00 10,4 9,9 - 9 5 N 1025,2 0 0,0
18.10.2018 05:00:00 10,5 9,7 - 5 3 N 1025,1 0 0,0
18.10.2018 04:00:00 11,0 10,1 - 8 4 N 1025,0 0 0,0
18.10.2018 03:00:00 11,6 10,5 - 5 3 N 1024,8 0 0,0
18.10.2018 02:00:00 12,7 11,5 - 8 4 N 1024,6 0 0,0
18.10.2018 01:00:00 13,1 12,2 - 9 5 N 1024,5 - 0,0
18.10.2018 00:00:00 13,3 12,4 - 8 4 N 1024,1 0 0,0
17.10.2018 23:00:00 13,6 12,5 - 9 5 N 1023,8 0 0,0
17.10.2018 22:00:00 13,5 12,2 - 5 3 N 1023,3 0 0,0
17.10.2018 21:00:00 14,0 12,4 - 5 3 N 1022,7 0 0,0
17.10.2018 20:00:00 14,3 12,7 - 5 3 NNE 1022,0 0 0,0
17.10.2018 19:00:00 14,5 13,0 - 9 5 N 1021,4 0 0,0
17.10.2018 18:00:00 14,5 12,9 - 5 3 N 1020,6 0 0,0
17.10.2018 17:00:00 15,2 12,8 - 9 5 NNW 1020,1 0 0,0
17.10.2018 16:00:00 15,6 13,0 - 8 4 WNW 1020,0 0 0,0
17.10.2018 15:00:00 15,2 12,7 - 5 3 NW 1019,9 0 0,0
17.10.2018 14:00:00 15,0 12,9 - 8 4 WSW 1019,8 0 0,0
17.10.2018 13:00:00 14,8 12,4 - 8 4 WSW 1019,7 0 0,0
17.10.2018 12:00:00 15,1 12,3 - 11 6 WSW 1019,7 0 0,0
17.10.2018 11:00:00 14,1 12,3 - 5 3 WSW 1019,5 0 0,2
17.10.2018 10:00:00 12,4 12,1 14,2 2 1 N 1019,4 18 0,0
17.10.2018 09:00:00 10,4 10,4 - 2 1 NNW 1019,1 60 0,0
17.10.2018 08:00:00 7,4 7,2 - 4 2 W 1018,9 24 0,0
17.10.2018 07:00:00 7,6 7,0 - 2 1 W 1018,4 0 0,0
17.10.2018 06:00:00 8,3 8,0 - 2 1 SSW 1018,1 0 0,0
17.10.2018 05:00:00 9,8 8,7 - 0 0 N 1017,8 0 0,0
17.10.2018 04:00:00 11,1 10,2 - 9 5 S 1017,6 0 0,0
17.10.2018 03:00:00 11,4 10,2 - 5 3 S 1017,8 0 0,0
17.10.2018 02:00:00 13,4 11,5 - 8 4 SW 1017,7 0 0,0
17.10.2018 01:00:00 12,5 11,7 - 5 3 SSW 1017,8 - 0,0
17.10.2018 00:00:00 13,3 11,8 - 4 2 SSW 1017,7 0 0,0
16.10.2018 23:00:00 14,4 12,2 - 8 4 SSW 1017,7 0 0,0
16.10.2018 22:00:00 14,0 13,1 - 9 5 SSW 1017,9 0 0,0
16.10.2018 21:00:00 13,8 13,1 - 8 4 S 1017,7 0 0,0
16.10.2018 20:00:00 13,6 12,5 - 8 4 S 1017,4 0 0,0
16.10.2018 19:00:00 13,8 12,2 - 9 5 S 1017,3 0 0,0
16.10.2018 18:00:00 15,0 12,2 - 11 6 SSW 1016,9 0 0,0
16.10.2018 17:00:00 16,6 12,8 - 16 9 SW 1016,5 24 0,0
16.10.2018 16:00:00 18,8 12,7 - 16 9 SSW 1016,1 36 0,0
16.10.2018 15:00:00 20,5 13,1 - 18 10 SSW 1016,0 60 0,0
16.10.2018 14:00:00 20,6 13,3 - 21 11 S 1015,9 60 0,0
16.10.2018 13:00:00 20,5 13,7 - 18 10 S 1015,9 60 0,0
16.10.2018 12:00:00 19,9 14,8 - 11 6 S 1016,4 60 0,0
16.10.2018 11:00:00 18,3 14,7 - 9 5 SSW 1016,5 60 0,0
16.10.2018 10:00:00 16,6 14,5 14,7 5 3 S 1016,3 54 0,0
16.10.2018 09:00:00 14,0 13,7 - 4 2 S 1016,4 0 0,0
16.10.2018 08:00:00 13,9 13,7 - 4 2 SSE 1015,9 0 0,0
16.10.2018 07:00:00 14,2 13,8 - 2 1 SW 1015,4 0 0,0
16.10.2018 06:00:00 14,6 14,2 - 4 2 SE 1015,0 0 0,0
16.10.2018 05:00:00 14,5 14,2 - 4 2 SE 1015,0 0 0,0
16.10.2018 04:00:00 14,5 14,2 - 2 1 ESE 1015,0 0 0,0
16.10.2018 03:00:00 14,4 14,1 - 2 1 NE 1015,0 0 0,0
16.10.2018 02:00:00 14,2 13,9 - 5 3 ESE 1015,4 0 0,0
16.10.2018 01:00:00 14,3 13,9 - 5 3 ESE 1015,3 - 0,0
16.10.2018 00:00:00 14,7 14,0 - 8 4 ESE 1015,3 0 0,0
15.10.2018 23:00:00 14,8 14,4 - 4 2 ENE 1015,1 0 0,0
15.10.2018 22:00:00 14,9 14,4 - 5 3 NNE 1014,8 0 0,0
15.10.2018 21:00:00 14,8 14,5 - 8 4 NNE 1014,3 0 0,0
15.10.2018 20:00:00 14,9 14,6 - 5 3 NNE 1013,8 0 0,0
15.10.2018 19:00:00 15,0 14,6 - 2 1 NE 1013,4 0 0,0
15.10.2018 18:00:00 15,1 14,4 - 8 4 NNE 1012,9 0 0,0
15.10.2018 17:00:00 15,5 14,6 - 4 2 NNE 1012,5 0 0,0
15.10.2018 16:00:00 15,1 14,6 - 5 3 N 1012,0 0 0,0
15.10.2018 15:00:00 14,6 14,2 - 8 4 NNW 1011,6 0 0,0
15.10.2018 14:00:00 14,5 14,2 - 8 4 N 1011,3 0 0,0
15.10.2018 13:00:00 14,1 13,9 - 8 4 N 1011,2 0 0,0
15.10.2018 12:00:00 14,0 13,9 - 8 4 N 1010,8 0 0,0
15.10.2018 11:00:00 13,8 13,8 - 8 4 NNE 1010,2 0 0,0
15.10.2018 10:00:00 13,6 13,6 14,2 9 5 N 1009,3 0 0,0
15.10.2018 09:00:00 13,2 13,2 - 9 5 N 1008,7 0 0,0
15.10.2018 08:00:00 13,1 13,1 - 9 5 N 1008,2 0 0,0
15.10.2018 07:00:00 13,0 12,9 - 5 3 NW 1008,1 0 0,0
15.10.2018 06:00:00 12,5 12,4 - 5 3 NW 1007,6 0 0,2
15.10.2018 05:00:00 11,8 11,7 - 11 6 N 1007,5 0 0,0
15.10.2018 04:00:00 11,4 11,2 - 11 6 N 1007,5 0 0,2
15.10.2018 03:00:00 11,5 11,3 - 11 6 N 1008,0 0 0,0
15.10.2018 02:00:00 11,6 11,0 - 13 7 N 1008,2 0 1,0
15.10.2018 01:00:00 11,3 10,7 - 13 7 N 1008,4 - 2,8
15.10.2018 00:00:00 11,0 10,5 - 13 7 NNE 1008,2 0 5,2
14.10.2018 23:00:00 11,0 10,4 - 16 9 N 1008,1 0 6,4
14.10.2018 22:00:00 11,0 10,5 - 13 7 N 1008,2 0 0,2
14.10.2018 21:00:00 11,2 10,4 - 16 9 N 1008,1 0 0,0
14.10.2018 20:00:00 11,4 10,8 - 11 6 N 1008,0 0 0,0
14.10.2018 19:00:00 11,4 10,9 - 13 7 N 1007,6 0 0,2
14.10.2018 18:00:00 11,8 11,2 - 13 7 N 1007,2 0 0,2
14.10.2018 17:00:00 12,5 11,8 - 13 7 NNW 1006,4 0 0,2
14.10.2018 16:00:00 12,9 12,3 - 15 8 NNW 1005,9 0 0,0
14.10.2018 15:00:00 13,4 12,0 - 16 9 NNW 1005,4 0 0,0

tt = temperature
td = dewpoint
tt -20cm = temperature -20cm
ff = wind speed
dd = wind direction
ppp = reduced air pressure
sd = sunshine duration
rr = precipitation

Next stations